Lamoille, Nevada
Current Conditions -  °F | °C
As of 2:56 PM on Wednesday 22 Oct 2014 (Local Time) from KEKO Reporting Station
Broken Clouds Broken Clouds  
Wind Chill: 65°   Ceiling: 10000
Heat Index: 65°   Visibility: 10mi
Dew Point: 20°   Wind: 8mph
Humidity: 18%   Direction: 240°WSW
Pressure: 30.12"   Gusts: NA
Location:  40.73°N, 115.48°W
Report Text: KEKO 222156Z AUTO 24007KT 10SM BKN100 18/M07 A3012 RMK AO2 SLP183 T01831067
Loading
Personal Weather Stations






























Interactive Weather Map
Tropical Storm Tracking
New forecast layout! Learn more

10-Day Weather Forecast

Advertisements
Track Severe Weather on mobile